MSC Regina — 3FGF9 — position and weather

sailwx.info

Track history (hours):
 
Tides and Currents Weather Stations Pressure Air Temp Water Temp Dewpoint Dewpoint Depression Visibility Wind Speed Wind Dir Waves Ship Positions

MSC Regina

Last reported at 2017-Feb-19 23:20 UTC. Time now 2017-Feb-19 23:35 UTC.
Position N 43°08' E 004°58'.

Length 259 m; draft 10.3 m.

Type: Ship (hazmat cat A). MMSI: 357331980.

Date/timePositionNaut miles runAvg speedWind from/ knotsBaromVisibWave heightAir tempDewpointWater temp
2017-Feb-19 23:20N 43°08' E 004°58'1215.9
2017-Feb-19 22:33N 43°20' E 004°58'7 3.4
2017-Feb-19 20:25N 43°25' E 004°50'7 0.4
2017-Feb-19 02:33N 43°21' E 004°58'9 8.9
2017-Feb-19 01:33N 43°13' E 005°02'10 9.6
2017-Feb-19 00:32N 43°04' E 004°58'6 3.2
2017-Feb-18 22:32N 43°06' E 005°06'12 6.2
2017-Feb-18 20:32N 42°55' E 005°13'17 8.4
2017-Feb-18 18:32N 42°41' E 005°26'2110.5
2017-Feb-18 16:33N 42°25' E 005°44'6 0.3
2017-Feb-17 18:33N 42°19' E 005°48'2 1.2
2017-Feb-17 16:33N 42°20' E 005°44'2 1.1
2017-Feb-17 14:34N 42°21' E 005°42'89 4.9
2017-Feb-16 20:23N 42°56' E 007°32'7 8.9
2017-Feb-16 19:33N 43°01' E 007°39'6010.0
2017-Feb-16 13:33N 43°20' E 008°57'1111.0
2017-Feb-16 12:31N 43°24' E 009°12'1111.2
2017-Feb-16 11:34N 43°27' E 009°26'1111.3
2017-Feb-16 10:33N 43°30' E 009°41'10 9.9
2017-Feb-16 09:34N 43°31' E 009°55'1010.3
2017-Feb-16 08:34N 43°30' E 010°09'8 7.6
2017-Feb-16 07:33N 43°34' E 010°18'1 0.9
2017-Feb-16 06:32N 43°35' E 010°18'0 0.0
2017-Feb-16 05:29N 43°35' E 010°18'0 0.0
2017-Feb-16 04:32N 43°35' E 010°18'0 0.0
2017-Feb-16 03:29N 43°35' E 010°18'0 0.0
2017-Feb-16 02:32N 43°35' E 010°18'0 0.0
2017-Feb-16 01:32N 43°35' E 010°18'0 0.0
2017-Feb-16 00:32N 43°35' E 010°18'0 0.0
2017-Feb-15 23:32N 43°35' E 010°18'0 0.0
2017-Feb-15 22:32N 43°35' E 010°18'0 0.0
2017-Feb-15 21:29N 43°35' E 010°18'0 0.0
2017-Feb-15 20:32N 43°35' E 010°18'0 0.0
2017-Feb-15 19:32N 43°35' E 010°18'0 0.0
2017-Feb-15 18:29N 43°35' E 010°18'0 0.0
2017-Feb-15 17:32N 43°35' E 010°18'0 0.0
2017-Feb-15 16:29N 43°35' E 010°18'0 0.0
2017-Feb-15 15:32N 43°35' E 010°18'0 0.0
2017-Feb-15 14:32N 43°35' E 010°18'0 0.0
2017-Feb-15 13:32N 43°35' E 010°18'0 0.0
2017-Feb-15 12:32N 43°35' E 010°18'0 0.0
2017-Feb-15 11:32N 43°35' E 010°18'0 0.0
2017-Feb-15 10:32N 43°35' E 010°18'0 0.0
2017-Feb-15 09:32N 43°35' E 010°18'0 0.0
2017-Feb-15 08:32N 43°35' E 010°18'2 2.0
2017-Feb-15 07:33N 43°33' E 010°17'5 4.9
2017-Feb-15 06:33N 43°30' E 010°12'1211.6
2017-Feb-15 05:34N 43°31' E 009°56'1515.1
2017-Feb-15 04:33N 43°38' E 009°38'1717.4
2017-Feb-15 03:33N 43°51' E 009°22'1818.0
2017-Feb-15 02:34N 44°04' E 009°05'1817.8
2017-Feb-15 01:33N 44°17' E 008°47'8 7.6
2017-Feb-15 00:30N 44°25' E 008°47'0 0.0
2017-Feb-14 23:33N 44°25' E 008°47'0 0.0
2017-Feb-14 22:30N 44°25' E 008°47'0 0.0
2017-Feb-14 21:33N 44°25' E 008°47'0 0.0
2017-Feb-14 20:33N 44°25' E 008°47'0 0.0
2017-Feb-14 19:30N 44°25' E 008°47'0 0.0
2017-Feb-14 18:27N 44°25' E 008°47'0 0.0
2017-Feb-14 17:30N 44°25' E 008°47'0 0.0
2017-Feb-14 16:33N 44°25' E 008°47'0 0.0
2017-Feb-14 15:33N 44°25' E 008°47'0 0.0
2017-Feb-14 14:33N 44°25' E 008°47'0 0.0
2017-Feb-14 13:30N 44°25' E 008°47'0 0.0
2017-Feb-14 12:33N 44°25' E 008°47'0 0.1
2017-Feb-14 11:33N 44°25' E 008°47'4 4.4
2017-Feb-14 10:33N 44°22' E 008°43'3 3.1
2017-Feb-14 09:33N 44°19' E 008°42'1 0.6
2017-Feb-14 08:33N 44°18' E 008°42'1 0.8
2017-Feb-14 07:33N 44°19' E 008°43'1 0.9
2017-Feb-14 06:33N 44°20' E 008°44'5 5.4
2017-Feb-14 05:33N 44°16' E 008°49'7 6.5
2017-Feb-14 04:33N 44°12' E 008°56'6 6.2
2017-Feb-14 03:33N 44°07' E 009°02'6 5.7
2017-Feb-14 02:33N 44°03' E 009°06'6 5.9
2017-Feb-14 01:33N 43°58' E 009°11'6 6.1
2017-Feb-14 00:33N 43°54' E 009°17'6 5.9
2017-Feb-13 23:33N 43°49' E 009°22'3 3.1
2017-Feb-13 22:33N 43°46' E 009°22'1 1.1
2017-Feb-13 21:33N 43°45' E 009°23'1 1.0
2017-Feb-13 20:33N 43°44' E 009°23'1 0.9
2017-Feb-13 19:33N 43°43' E 009°24'1 0.8
2017-Feb-13 18:33N 43°42' E 009°24'1 1.1
2017-Feb-13 17:33N 43°41' E 009°25'1 1.5
2017-Feb-13 16:33N 43°40' E 009°25'2 1.6
2017-Feb-13 15:33N 43°38' E 009°25'2 1.6
2017-Feb-13 14:33N 43°37' E 009°26'2 1.8
2017-Feb-13 13:33N 43°35' E 009°27'2 1.8
2017-Feb-13 12:33N 43°34' E 009°28'3 2.7
2017-Feb-13 11:33N 43°33' E 009°32'9 9.0
2017-Feb-13 10:33N 43°32' E 009°44'9 8.9
2017-Feb-13 09:33N 43°31' E 009°56'9 9.0
2017-Feb-13 08:33N 43°30' E 010°09'4 4.5
2017-Feb-13 07:33N 43°25' E 010°07'1212.2
2017-Feb-13 06:33N 43°17' E 009°55'1615.1
2017-Feb-13 05:30N 43°05' E 009°40'7218.3
2017-Feb-13 01:33N 42°00' E 010°23'28115.6
2017-Feb-12 07:31N 39°01' E 015°06'1919.4
2017-Feb-12 06:34N 38°49' E 015°25'1918.9
2017-Feb-12 05:33N 38°35' E 015°41'1312.9
2017-Feb-12 04:34N 38°27' E 015°53'1 1.4
2017-Feb-12 03:33N 38°28' E 015°55'0 0.0
2017-Feb-12 02:29N 38°28' E 015°55'0 0.0
2017-Feb-12 01:32N 38°28' E 015°55'0 0.0
2017-Feb-12 00:32N 38°28' E 015°55'0 0.0
2017-Feb-11 23:32N 38°28' E 015°55'0 0.0
2017-Feb-11 22:32N 38°28' E 015°55'0 0.0
2017-Feb-11 21:32N 38°28' E 015°55'0 0.0
2017-Feb-11 20:32N 38°28' E 015°55'0 0.0
2017-Feb-11 19:29N 38°28' E 015°55'0 0.0
2017-Feb-11 18:32N 38°28' E 015°55'0 0.0
2017-Feb-11 17:29N 38°28' E 015°55'0 0.0
2017-Feb-11 16:32N 38°28' E 015°55'0 0.0
2017-Feb-11 15:32N 38°28' E 015°55'0 0.0
2017-Feb-11 14:32N 38°28' E 015°55'0 0.0
2017-Feb-11 13:32N 38°28' E 015°55'0 0.0
2017-Feb-11 12:29N 38°28' E 015°55'0 0.0
2017-Feb-11 11:29N 38°28' E 015°55'0 0.0
2017-Feb-11 10:32N 38°28' E 015°55'0 0.0
2017-Feb-11 09:32N 38°28' E 015°55'0 0.0
2017-Feb-11 08:29N 38°28' E 015°55'0 0.0
2017-Feb-11 07:29N 38°28' E 015°55'0 0.0
2017-Feb-11 06:23N 38°28' E 015°55'0 0.0
2017-Feb-11 05:32N 38°28' E 015°55'0 0.0
2017-Feb-11 04:32N 38°28' E 015°55'0 0.0
2017-Feb-11 03:29N 38°28' E 015°55'0 0.0
2017-Feb-11 02:32N 38°28' E 015°55'0 0.0
2017-Feb-11 01:32N 38°28' E 015°55'0 0.0
2017-Feb-11 00:32N 38°28' E 015°55'1 0.7
2017-Feb-10 23:32N 38°28' E 015°55'0 0.0
2017-Feb-10 22:32N 38°28' E 015°55'0 0.0
2017-Feb-10 21:32N 38°28' E 015°55'0 0.0
2017-Feb-10 20:32N 38°28' E 015°55'0 0.0
2017-Feb-10 19:32N 38°28' E 015°55'0 0.0
2017-Feb-10 18:32N 38°28' E 015°55'0 0.0
2017-Feb-10 17:32N 38°28' E 015°55'0 0.0
2017-Feb-10 16:32N 38°28' E 015°55'0 0.0
2017-Feb-10 15:29N 38°28' E 015°55'0 0.0
2017-Feb-10 14:32N 38°28' E 015°55'0 0.0
2017-Feb-10 13:32N 38°28' E 015°55'0 0.0
2017-Feb-10 12:32N 38°28' E 015°55'0 0.0
2017-Feb-10 11:32N 38°28' E 015°55'0 0.0
2017-Feb-10 10:29N 38°28' E 015°55'0 0.0
2017-Feb-10 09:32N 38°28' E 015°55'0 0.0
2017-Feb-10 08:29N 38°28' E 015°55'0 0.0
2017-Feb-10 07:29N 38°28' E 015°55'0 0.0
2017-Feb-10 06:26N 38°28' E 015°55'0 0.0
2017-Feb-10 05:32N 38°28' E 015°55'0 0.0
2017-Feb-10 04:32N 38°28' E 015°55'0 0.0
2017-Feb-10 03:32N 38°28' E 015°55'0 0.0
2017-Feb-10 02:32N 38°28' E 015°55'0 0.0
2017-Feb-10 01:32N 38°28' E 015°55'0 0.0
2017-Feb-10 00:32N 38°28' E 015°55'0 0.0
2017-Feb-09 23:32N 38°28' E 015°55'  
Track history (hours):
 
Tides and Currents Weather Stations Pressure Air Temp Water Temp Dewpoint Dewpoint Depression Visibility Wind Speed Wind Dir Waves Ship Positions

MSC Regina

Last reported at 2017-Feb-19 23:20 UTC. Time now 2017-Feb-19 23:35 UTC.
Position N 43°08' E 004°58'.

Length 259 m; draft 10.3 m.

Type: Ship (hazmat cat A). MMSI: 357331980.

Date/timePositionNaut miles runAvg speedWind from/ knotsBaromVisibWave heightAir tempDewpointWater temp
2017-Feb-19 23:20N 43°08' E 004°58'1215.9
2017-Feb-19 22:33N 43°20' E 004°58'7 3.4
2017-Feb-19 20:25N 43°25' E 004°50'7 0.4
2017-Feb-19 02:33N 43°21' E 004°58'9 8.9
2017-Feb-19 01:33N 43°13' E 005°02'10 9.6
2017-Feb-19 00:32N 43°04' E 004°58'6 3.2
2017-Feb-18 22:32N 43°06' E 005°06'12 6.2
2017-Feb-18 20:32N 42°55' E 005°13'17 8.4
2017-Feb-18 18:32N 42°41' E 005°26'2110.5
2017-Feb-18 16:33N 42°25' E 005°44'6 0.3
2017-Feb-17 18:33N 42°19' E 005°48'2 1.2
2017-Feb-17 16:33N 42°20' E 005°44'2 1.1
2017-Feb-17 14:34N 42°21' E 005°42'89 4.9
2017-Feb-16 20:23N 42°56' E 007°32'7 8.9
2017-Feb-16 19:33N 43°01' E 007°39'6010.0
2017-Feb-16 13:33N 43°20' E 008°57'1111.0
2017-Feb-16 12:31N 43°24' E 009°12'1111.2
2017-Feb-16 11:34N 43°27' E 009°26'1111.3
2017-Feb-16 10:33N 43°30' E 009°41'10 9.9
2017-Feb-16 09:34N 43°31' E 009°55'1010.3
2017-Feb-16 08:34N 43°30' E 010°09'8 7.6
2017-Feb-16 07:33N 43°34' E 010°18'1 0.9
2017-Feb-16 06:32N 43°35' E 010°18'0 0.0
2017-Feb-16 05:29N 43°35' E 010°18'0 0.0
2017-Feb-16 04:32N 43°35' E 010°18'0 0.0
2017-Feb-16 03:29N 43°35' E 010°18'0 0.0
2017-Feb-16 02:32N 43°35' E 010°18'0 0.0
2017-Feb-16 01:32N 43°35' E 010°18'0 0.0
2017-Feb-16 00:32N 43°35' E 010°18'0 0.0
2017-Feb-15 23:32N 43°35' E 010°18'0 0.0
2017-Feb-15 22:32N 43°35' E 010°18'0 0.0
2017-Feb-15 21:29N 43°35' E 010°18'0 0.0
2017-Feb-15 20:32N 43°35' E 010°18'0 0.0
2017-Feb-15 19:32N 43°35' E 010°18'0 0.0
2017-Feb-15 18:29N 43°35' E 010°18'0 0.0
2017-Feb-15 17:32N 43°35' E 010°18'0 0.0
2017-Feb-15 16:29N 43°35' E 010°18'0 0.0
2017-Feb-15 15:32N 43°35' E 010°18'0 0.0
2017-Feb-15 14:32N 43°35' E 010°18'0 0.0
2017-Feb-15 13:32N 43°35' E 010°18'0 0.0
2017-Feb-15 12:32N 43°35' E 010°18'0 0.0
2017-Feb-15 11:32N 43°35' E 010°18'0 0.0
2017-Feb-15 10:32N 43°35' E 010°18'0 0.0
2017-Feb-15 09:32N 43°35' E 010°18'0 0.0
2017-Feb-15 08:32N 43°35' E 010°18'2 2.0
2017-Feb-15 07:33N 43°33' E 010°17'5 4.9
2017-Feb-15 06:33N 43°30' E 010°12'1211.6
2017-Feb-15 05:34N 43°31' E 009°56'1515.1
2017-Feb-15 04:33N 43°38' E 009°38'1717.4
2017-Feb-15 03:33N 43°51' E 009°22'1818.0
2017-Feb-15 02:34N 44°04' E 009°05'1817.8
2017-Feb-15 01:33N 44°17' E 008°47'8 7.6
2017-Feb-15 00:30N 44°25' E 008°47'0 0.0
2017-Feb-14 23:33N 44°25' E 008°47'0 0.0
2017-Feb-14 22:30N 44°25' E 008°47'0 0.0
2017-Feb-14 21:33N 44°25' E 008°47'0 0.0
2017-Feb-14 20:33N 44°25' E 008°47'0 0.0
2017-Feb-14 19:30N 44°25' E 008°47'0 0.0
2017-Feb-14 18:27N 44°25' E 008°47'0 0.0
2017-Feb-14 17:30N 44°25' E 008°47'0 0.0
2017-Feb-14 16:33N 44°25' E 008°47'0 0.0
2017-Feb-14 15:33N 44°25' E 008°47'0 0.0
2017-Feb-14 14:33N 44°25' E 008°47'0 0.0
2017-Feb-14 13:30N 44°25' E 008°47'0 0.0
2017-Feb-14 12:33N 44°25' E 008°47'0 0.1
2017-Feb-14 11:33N 44°25' E 008°47'4 4.4
2017-Feb-14 10:33N 44°22' E 008°43'3 3.1
2017-Feb-14 09:33N 44°19' E 008°42'1 0.6
2017-Feb-14 08:33N 44°18' E 008°42'1 0.8
2017-Feb-14 07:33N 44°19' E 008°43'1 0.9
2017-Feb-14 06:33N 44°20' E 008°44'5 5.4
2017-Feb-14 05:33N 44°16' E 008°49'7 6.5
2017-Feb-14 04:33N 44°12' E 008°56'6 6.2
2017-Feb-14 03:33N 44°07' E 009°02'6 5.7
2017-Feb-14 02:33N 44°03' E 009°06'6 5.9
2017-Feb-14 01:33N 43°58' E 009°11'6 6.1
2017-Feb-14 00:33N 43°54' E 009°17'6 5.9
2017-Feb-13 23:33N 43°49' E 009°22'3 3.1
2017-Feb-13 22:33N 43°46' E 009°22'1 1.1
2017-Feb-13 21:33N 43°45' E 009°23'1 1.0
2017-Feb-13 20:33N 43°44' E 009°23'1 0.9
2017-Feb-13 19:33N 43°43' E 009°24'1 0.8
2017-Feb-13 18:33N 43°42' E 009°24'1 1.1
2017-Feb-13 17:33N 43°41' E 009°25'1 1.5
2017-Feb-13 16:33N 43°40' E 009°25'2 1.6
2017-Feb-13 15:33N 43°38' E 009°25'2 1.6
2017-Feb-13 14:33N 43°37' E 009°26'2 1.8
2017-Feb-13 13:33N 43°35' E 009°27'2 1.8
2017-Feb-13 12:33N 43°34' E 009°28'3 2.7
2017-Feb-13 11:33N 43°33' E 009°32'9 9.0
2017-Feb-13 10:33N 43°32' E 009°44'9 8.9
2017-Feb-13 09:33N 43°31' E 009°56'9 9.0
2017-Feb-13 08:33N 43°30' E 010°09'4 4.5
2017-Feb-13 07:33N 43°25' E 010°07'1212.2
2017-Feb-13 06:33N 43°17' E 009°55'1615.1
2017-Feb-13 05:30N 43°05' E 009°40'7218.3
2017-Feb-13 01:33N 42°00' E 010°23'28115.6
2017-Feb-12 07:31N 39°01' E 015°06'1919.4
2017-Feb-12 06:34N 38°49' E 015°25'1918.9
2017-Feb-12 05:33N 38°35' E 015°41'1312.9
2017-Feb-12 04:34N 38°27' E 015°53'1 1.4
2017-Feb-12 03:33N 38°28' E 015°55'0 0.0
2017-Feb-12 02:29N 38°28' E 015°55'0 0.0
2017-Feb-12 01:32N 38°28' E 015°55'0 0.0
2017-Feb-12 00:32N 38°28' E 015°55'0 0.0
2017-Feb-11 23:32N 38°28' E 015°55'0 0.0
2017-Feb-11 22:32N 38°28' E 015°55'0 0.0
2017-Feb-11 21:32N 38°28' E 015°55'0 0.0
2017-Feb-11 20:32N 38°28' E 015°55'0 0.0
2017-Feb-11 19:29N 38°28' E 015°55'0 0.0
2017-Feb-11 18:32N 38°28' E 015°55'0 0.0
2017-Feb-11 17:29N 38°28' E 015°55'0 0.0
2017-Feb-11 16:32N 38°28' E 015°55'0 0.0
2017-Feb-11 15:32N 38°28' E 015°55'0 0.0
2017-Feb-11 14:32N 38°28' E 015°55'0 0.0
2017-Feb-11 13:32N 38°28' E 015°55'0 0.0
2017-Feb-11 12:29N 38°28' E 015°55'0 0.0
2017-Feb-11 11:29N 38°28' E 015°55'0 0.0
2017-Feb-11 10:32N 38°28' E 015°55'0 0.0
2017-Feb-11 09:32N 38°28' E 015°55'0 0.0
2017-Feb-11 08:29N 38°28' E 015°55'0 0.0
2017-Feb-11 07:29N 38°28' E 015°55'0 0.0
2017-Feb-11 06:23N 38°28' E 015°55'0 0.0
2017-Feb-11 05:32N 38°28' E 015°55'0 0.0
2017-Feb-11 04:32N 38°28' E 015°55'0 0.0
2017-Feb-11 03:29N 38°28' E 015°55'0 0.0
2017-Feb-11 02:32N 38°28' E 015°55'0 0.0
2017-Feb-11 01:32N 38°28' E 015°55'0 0.0
2017-Feb-11 00:32N 38°28' E 015°55'1 0.7
2017-Feb-10 23:32N 38°28' E 015°55'0 0.0
2017-Feb-10 22:32N 38°28' E 015°55'0 0.0
2017-Feb-10 21:32N 38°28' E 015°55'0 0.0
2017-Feb-10 20:32N 38°28' E 015°55'0 0.0
2017-Feb-10 19:32N 38°28' E 015°55'0 0.0
2017-Feb-10 18:32N 38°28' E 015°55'0 0.0
2017-Feb-10 17:32N 38°28' E 015°55'0 0.0
2017-Feb-10 16:32N 38°28' E 015°55'0 0.0
2017-Feb-10 15:29N 38°28' E 015°55'0 0.0
2017-Feb-10 14:32N 38°28' E 015°55'0 0.0
2017-Feb-10 13:32N 38°28' E 015°55'0 0.0
2017-Feb-10 12:32N 38°28' E 015°55'0 0.0
2017-Feb-10 11:32N 38°28' E 015°55'0 0.0
2017-Feb-10 10:29N 38°28' E 015°55'0 0.0
2017-Feb-10 09:32N 38°28' E 015°55'0 0.0
2017-Feb-10 08:29N 38°28' E 015°55'0 0.0
2017-Feb-10 07:29N 38°28' E 015°55'0 0.0
2017-Feb-10 06:26N 38°28' E 015°55'0 0.0
2017-Feb-10 05:32N 38°28' E 015°55'0 0.0
2017-Feb-10 04:32N 38°28' E 015°55'0 0.0
2017-Feb-10 03:32N 38°28' E 015°55'0 0.0
2017-Feb-10 02:32N 38°28' E 015°55'0 0.0
2017-Feb-10 01:32N 38°28' E 015°55'0 0.0
2017-Feb-10 00:32N 38°28' E 015°55'0 0.0
2017-Feb-09 23:32N 38°28' E 015°55'  

Dump ship's entire track history